createdAt,value
2016-02-02T00:00:20.935Z,11.36
2016-02-02T00:01:20.922Z,11.33
2016-02-02T00:02:20.878Z,11.36
2016-02-02T00:03:20.866Z,11.37
2016-02-02T00:04:20.853Z,11.4
2016-02-02T00:05:20.809Z,11.29
2016-02-02T00:06:20.796Z,11.37
2016-02-02T00:07:20.784Z,11.33
2016-02-02T00:08:20.740Z,11.3
2016-02-02T00:09:20.742Z,11.41
2016-02-02T00:10:20.698Z,11.37
2016-02-02T00:11:20.688Z,11.37
2016-02-02T00:12:20.675Z,11.37
2016-02-02T00:13:20.631Z,11.3
2016-02-02T00:14:20.617Z,11.33
2016-02-02T00:15:20.590Z,11.3
2016-02-02T00:16:20.562Z,11.33
2016-02-02T00:17:20.549Z,11.23
2016-02-02T00:18:20.521Z,11.23
2016-02-02T00:19:20.492Z,11.27
2016-02-02T00:20:20.482Z,11.33
2016-02-02T00:21:20.454Z,11.25
2016-02-02T00:22:20.441Z,11.33
2016-02-02T00:23:20.415Z,11.33
2016-02-02T00:24:20.386Z,11.3
2016-02-02T00:25:20.373Z,11.32
2016-02-02T00:26:20.346Z,11.3
2016-02-02T00:27:20.317Z,11.33
2016-02-02T00:28:20.320Z,11.33
2016-02-02T00:29:20.276Z,11.29
2016-02-02T00:30:20.248Z,11.37
2016-02-02T00:31:20.235Z,11.35
2016-02-02T00:32:20.207Z,11.37
2016-02-02T00:33:20.180Z,11.29
2016-02-02T00:34:20.167Z,11.37
2016-02-02T00:35:20.138Z,11.4
2016-02-02T00:36:20.110Z,11.32
2016-02-02T00:37:20.098Z,11.45
2016-02-02T00:38:20.070Z,11.41
2016-02-02T00:39:20.056Z,11.43
2016-02-02T00:40:20.027Z,11.41
2016-02-02T00:41:20.015Z,11.44
2016-02-02T00:42:19.988Z,11.4
2016-02-02T00:43:19.959Z,11.45
2016-02-02T00:44:19.962Z,11.44
2016-02-02T00:45:19.918Z,11.47
2016-02-02T00:46:19.890Z,11.44
2016-02-02T00:47:19.861Z,11.45
2016-02-02T00:48:19.849Z,11.43
2016-02-02T00:49:19.821Z,11.4
2016-02-02T00:50:19.808Z,11.45
2016-02-02T00:51:19.779Z,11.45
2016-02-02T00:52:19.766Z,11.43
2016-02-02T00:53:19.739Z,11.52
2016-02-02T00:54:19.726Z,11.45
2016-02-02T00:55:19.681Z,11.51
2016-02-02T00:56:19.669Z,11.62
2016-02-02T00:57:19.639Z,11.55
2016-02-02T00:58:19.628Z,11.52
2016-02-02T00:59:19.600Z,11.63
2016-02-02T01:00:19.577Z,11.55
2016-02-02T01:01:19.549Z,11.55
2016-02-02T01:02:19.536Z,11.6
2016-02-02T01:03:19.508Z,11.6
2016-02-02T01:04:19.510Z,11.57
2016-02-02T01:05:19.482Z,11.57
2016-02-02T01:06:19.454Z,11.54
2016-02-02T01:07:19.425Z,11.55
2016-02-02T01:08:19.398Z,11.59
2016-02-02T01:09:19.370Z,11.63
2016-02-02T01:10:19.341Z,11.51
2016-02-02T01:11:19.328Z,11.45
2016-02-02T01:12:19.300Z,11.47
2016-02-02T01:13:19.287Z,11.36
2016-02-02T01:14:19.273Z,11.35
2016-02-02T01:15:19.229Z,11.41
2016-02-02T01:16:19.217Z,11.37
2016-02-02T01:17:19.189Z,11.41
2016-02-02T01:18:19.175Z,11.41
2016-02-02T01:19:19.148Z,11.43
2016-02-02T01:20:19.134Z,11.41
2016-02-02T01:21:19.090Z,11.33
2016-02-02T01:22:19.093Z,11.37
2016-02-02T01:23:19.064Z,11.47
2016-02-02T01:24:19.036Z,11.44
2016-02-02T01:25:19.023Z,11.43
2016-02-02T01:26:18.995Z,11.37
2016-02-02T01:27:18.981Z,11.47
2016-02-02T01:28:18.937Z,11.37
2016-02-02T01:29:18.918Z,11.4
2016-02-02T01:30:18.908Z,11.4
2016-02-02T01:31:18.879Z,11.45
2016-02-02T01:32:18.850Z,11.35
2016-02-02T01:33:18.838Z,11.45
2016-02-02T01:34:18.809Z,11.41
2016-02-02T01:35:18.781Z,11.41
2016-02-02T01:36:18.753Z,11.5
2016-02-02T01:37:18.742Z,11.5
2016-02-02T01:38:18.728Z,11.44
2016-02-02T01:39:18.685Z,11.51
2016-02-02T01:40:18.672Z,11.45
2016-02-02T01:41:18.660Z,11.51
2016-02-02T01:42:18.632Z,11.51
2016-02-02T01:43:18.602Z,11.47
2016-02-02T01:44:18.575Z,11.63
2016-02-02T01:45:18.562Z,11.57
2016-02-02T01:46:18.550Z,11.6
2016-02-02T01:47:18.505Z,11.54
2016-02-02T01:48:18.491Z,11.6
2016-02-02T01:49:18.467Z,11.54
2016-02-02T01:50:18.438Z,11.55
2016-02-02T01:51:18.428Z,11.6
2016-02-02T01:52:18.399Z,11.52
2016-02-02T01:53:18.372Z,11.62
2016-02-02T01:54:18.358Z,11.6
2016-02-02T01:55:18.329Z,11.65
2016-02-02T01:56:18.303Z,11.66
2016-02-02T01:57:18.291Z,11.66
2016-02-02T01:58:18.262Z,11.62
2016-02-02T01:59:18.250Z,11.73
2016-02-02T02:00:18.223Z,11.62
2016-02-02T02:01:18.194Z,11.57
2016-02-02T02:02:18.181Z,11.62
2016-02-02T02:03:18.152Z,11.63
2016-02-02T02:04:18.140Z,11.68
2016-02-02T02:05:18.098Z,11.63
2016-02-02T02:06:18.084Z,11.65
2016-02-02T02:07:18.087Z,11.63
2016-02-02T02:08:18.043Z,11.62
2016-02-02T02:09:18.031Z,11.63
2016-02-02T02:10:17.987Z,11.65
2016-02-02T02:11:17.973Z,11.54
2016-02-02T02:12:17.945Z,11.52
2016-02-02T02:13:17.917Z,11.51
2016-02-02T02:14:17.905Z,11.54
2016-02-02T02:15:17.876Z,11.57
2016-02-02T02:16:17.863Z,11.47
2016-02-02T02:17:17.857Z,11.51
2016-02-02T02:18:17.814Z,11.44
2016-02-02T02:19:17.784Z,11.52
2016-02-02T02:20:17.771Z,11.52
2016-02-02T02:21:17.743Z,11.52
2016-02-02T02:22:17.731Z,11.57
2016-02-02T02:23:17.703Z,11.55
2016-02-02T02:24:17.673Z,11.57
2016-02-02T02:25:17.646Z,11.57
2016-02-02T02:26:17.652Z,11.59
2016-02-02T02:27:17.607Z,11.54
2016-02-02T02:28:17.579Z,11.62
2016-02-02T02:29:17.568Z,11.62
2016-02-02T02:30:17.540Z,11.68
2016-02-02T02:31:17.511Z,11.62
2016-02-02T02:32:17.498Z,11.48
2016-02-02T02:33:17.470Z,11.6
2016-02-02T02:34:17.457Z,11.54
2016-02-02T02:35:17.428Z,11.57
2016-02-02T02:36:17.415Z,11.6
2016-02-02T02:37:17.387Z,11.52
2016-02-02T02:38:17.359Z,11.59
2016-02-02T02:39:17.329Z,11.63
2016-02-02T02:40:17.316Z,11.63
2016-02-02T02:41:17.303Z,11.55
2016-02-02T02:42:17.260Z,11.62
2016-02-02T02:43:17.248Z,11.59
2016-02-02T02:44:17.218Z,11.52
2016-02-02T02:45:17.207Z,11.57
2016-02-02T02:46:17.224Z,11.59
2016-02-02T02:47:17.151Z,11.65
2016-02-02T02:48:17.139Z,11.55
2016-02-02T02:49:17.110Z,11.54
2016-02-02T02:50:17.129Z,11.6
2016-02-02T02:51:17.069Z,11.63
2016-02-02T02:52:17.057Z,11.55
2016-02-02T02:53:17.013Z,11.57
2016-02-02T02:54:17.000Z,11.54
2016-02-02T02:55:16.971Z,11.55
2016-02-02T02:56:16.947Z,11.6
2016-02-02T02:57:16.933Z,11.63
2016-02-02T02:58:16.905Z,11.51
2016-02-02T02:59:16.882Z,11.57
2016-02-02T03:00:16.852Z,11.54
2016-02-02T03:01:16.840Z,11.54
2016-02-02T03:02:16.811Z,11.59
2016-02-02T03:03:16.783Z,11.65
2016-02-02T03:04:16.774Z,11.62
2016-02-02T03:05:16.745Z,11.6
2016-02-02T03:06:16.734Z,11.65
2016-02-02T03:07:16.705Z,11.65
2016-02-02T03:08:16.677Z,11.54
2016-02-02T03:09:16.663Z,11.6
2016-02-02T03:10:16.635Z,11.6
2016-02-02T03:11:16.607Z,11.6
2016-02-02T03:12:16.595Z,11.55
2016-02-02T03:13:16.567Z,11.62
2016-02-02T03:14:16.541Z,11.55
2016-02-02T03:15:16.514Z,11.5
2016-02-02T03:16:16.501Z,11.52
2016-02-02T03:17:16.488Z,11.52
2016-02-02T03:18:16.460Z,11.54
2016-02-02T03:19:16.432Z,11.5
2016-02-02T03:20:16.403Z,11.59
2016-02-02T03:21:16.391Z,11.5
2016-02-02T03:22:16.361Z,11.48
2016-02-02T03:23:16.350Z,11.54
2016-02-02T03:24:16.325Z,11.47
2016-02-02T03:25:16.296Z,11.47
2016-02-02T03:26:16.284Z,11.5
2016-02-02T03:27:16.256Z,11.35
2016-02-02T03:28:16.228Z,11.51
2016-02-02T03:29:16.202Z,11.5
2016-02-02T03:30:16.197Z,11.45
2016-02-02T03:31:16.169Z,11.47
2016-02-02T03:32:16.139Z,11.48
2016-02-02T03:33:16.111Z,11.43
2016-02-02T03:34:16.085Z,11.47
2016-02-02T03:35:16.088Z,11.47
2016-02-02T03:36:16.059Z,11.47
2016-02-02T03:37:16.046Z,11.5
2016-02-02T03:38:16.003Z,11.48
2016-02-02T03:39:15.975Z,11.45
2016-02-02T03:40:15.961Z,11.48
2016-02-02T03:41:15.932Z,11.43
2016-02-02T03:42:15.904Z,11.43
2016-02-02T03:43:15.874Z,11.45
2016-02-02T03:44:15.850Z,11.5
2016-02-02T03:45:15.811Z,11.51
2016-02-02T03:46:15.786Z,11.51
2016-02-02T03:47:15.747Z,11.45
2016-02-02T03:48:15.708Z,11.48
2016-02-02T03:49:15.692Z,11.5
2016-02-02T03:50:15.661Z,11.48
2016-02-02T03:51:15.645Z,11.54
2016-02-02T03:52:15.613Z,11.48
2016-02-02T03:53:15.424Z,11.5
2016-02-02T03:54:15.551Z,11.47
2016-02-02T03:55:15.536Z,11.45
2016-02-02T03:56:15.506Z,11.47
2016-02-02T03:57:15.492Z,11.51
2016-02-02T03:58:15.462Z,11.59
2016-02-02T03:59:15.450Z,11.48
2016-02-02T04:00:15.405Z,11.52
2016-02-02T04:01:15.390Z,11.54
2016-02-02T04:02:15.377Z,11.5
2016-02-02T04:03:15.333Z,11.55
2016-02-02T04:04:15.339Z,11.51
2016-02-02T04:05:15.295Z,11.5
2016-02-02T04:06:15.282Z,11.5
2016-02-02T04:07:15.255Z,11.59
2016-02-02T04:08:15.226Z,11.54
2016-02-02T04:09:15.213Z,11.63
2016-02-02T04:10:15.184Z,11.59
2016-02-02T04:11:15.172Z,11.55
2016-02-02T04:12:15.159Z,11.59
2016-02-02T04:13:15.130Z,11.59
2016-02-02T04:14:15.102Z,11.59
2016-02-02T04:15:15.075Z,11.52
2016-02-02T04:16:15.046Z,11.59
2016-02-02T04:17:15.045Z,11.55
2016-02-02T04:18:15.002Z,11.59
2016-02-02T04:19:14.989Z,11.66
2016-02-02T04:20:14.977Z,11.62
2016-02-02T04:21:14.932Z,11.62
2016-02-02T04:22:14.919Z,11.59
2016-02-02T04:23:14.891Z,11.54
2016-02-02T04:24:14.879Z,11.59
2016-02-02T04:25:14.851Z,11.59
2016-02-02T04:26:14.837Z,11.6
2016-02-02T04:27:14.810Z,11.54
2016-02-02T04:28:14.782Z,11.57
2016-02-02T04:29:14.769Z,11.62
2016-02-02T04:30:14.741Z,11.52
2016-02-02T04:31:14.712Z,11.57
2016-02-02T04:32:14.685Z,11.57
2016-02-02T04:33:14.687Z,11.62
2016-02-02T04:34:14.643Z,11.63
2016-02-02T04:35:14.631Z,11.55
2016-02-02T04:36:14.618Z,11.6
2016-02-02T04:37:14.574Z,11.54
2016-02-02T04:38:14.561Z,11.54
2016-02-02T04:39:14.548Z,11.68
2016-02-02T04:40:14.504Z,11.6
2016-02-02T04:41:14.491Z,11.65
2016-02-02T04:42:14.480Z,11.65
2016-02-02T04:43:14.435Z,11.59
2016-02-02T04:44:14.422Z,11.66
2016-02-02T04:45:14.410Z,11.66
2016-02-02T04:46:14.380Z,11.65
2016-02-02T04:47:14.352Z,11.7
2016-02-02T04:48:14.338Z,11.68
2016-02-02T04:49:14.311Z,11.65
2016-02-02T04:50:14.282Z,11.72
2016-02-02T04:51:14.269Z,11.72
2016-02-02T04:52:14.241Z,11.7
2016-02-02T04:53:14.228Z,11.65
2016-02-02T04:54:14.200Z,11.66
2016-02-02T04:55:14.171Z,11.66
2016-02-02T04:56:14.158Z,11.69
2016-02-02T04:57:14.131Z,11.7
2016-02-02T04:58:14.118Z,11.69
2016-02-02T04:59:14.105Z,11.69
2016-02-02T05:00:14.061Z,11.75
2016-02-02T05:01:14.035Z,11.73
2016-02-02T05:02:14.021Z,11.73
2016-02-02T05:03:14.008Z,11.78
2016-02-02T05:04:13.995Z,11.72
2016-02-02T05:05:13.952Z,11.73
2016-02-02T05:06:13.938Z,11.7
2016-02-02T05:07:13.927Z,11.75
2016-02-02T05:08:13.914Z,11.73
2016-02-02T05:09:13.870Z,11.73
2016-02-02T05:10:13.856Z,11.73
2016-02-02T05:11:13.831Z,11.78
2016-02-02T05:12:13.803Z,11.8
2016-02-02T05:13:13.774Z,11.73
2016-02-02T05:14:13.765Z,11.73
2016-02-02T05:15:13.736Z,11.78
2016-02-02T05:16:13.707Z,11.7
2016-02-02T05:17:13.695Z,11.7
2016-02-02T05:18:13.682Z,11.7
2016-02-02T05:19:13.653Z,11.7
2016-02-02T05:20:13.624Z,11.77
2016-02-02T05:21:13.611Z,11.72
2016-02-02T05:22:13.584Z,11.66
2016-02-02T05:23:13.555Z,11.7
2016-02-02T05:24:13.542Z,11.73
2016-02-02T05:25:13.514Z,11.77
2016-02-02T05:26:13.501Z,11.7
2016-02-02T05:27:13.473Z,11.75
2016-02-02T05:28:13.460Z,11.73
2016-02-02T05:29:13.416Z,11.75
2016-02-02T05:30:13.253Z,11.72
2016-02-02T05:31:13.380Z,11.68
2016-02-02T05:32:13.368Z,11.69
2016-02-02T05:33:13.354Z,11.72
2016-02-02T05:34:13.311Z,11.62
2016-02-02T05:35:13.282Z,11.55
2016-02-02T05:36:13.269Z,11.68
2016-02-02T05:37:13.257Z,11.75
2016-02-02T05:38:13.244Z,11.69
2016-02-02T05:39:13.215Z,11.69
2016-02-02T05:40:13.184Z,11.65
2016-02-02T05:41:13.154Z,11.65
2016-02-02T05:42:13.157Z,11.66
2016-02-02T05:43:13.113Z,11.69
2016-02-02T05:44:13.105Z,11.6
2016-02-02T05:45:13.076Z,11.62
2016-02-02T05:46:13.063Z,11.59
2016-02-02T05:47:13.019Z,11.66
2016-02-02T05:48:13.006Z,11.65
2016-02-02T05:49:12.993Z,11.62
2016-02-02T05:50:12.981Z,11.66
2016-02-02T05:51:12.936Z,11.54
2016-02-02T05:52:12.924Z,11.63
2016-02-02T05:53:12.895Z,11.57
2016-02-02T05:54:12.884Z,11.55
2016-02-02T05:55:12.854Z,11.63
2016-02-02T05:56:12.826Z,11.62
2016-02-02T05:57:12.813Z,11.54
2016-02-02T05:58:12.784Z,11.62
2016-02-02T05:59:12.772Z,11.65
2016-02-02T06:00:12.742Z,11.63
2016-02-02T06:01:12.712Z,11.62
2016-02-02T06:02:12.684Z,11.55
2016-02-02T06:03:12.688Z,11.57
2016-02-02T06:04:12.643Z,11.55
2016-02-02T06:05:12.630Z,11.57
2016-02-02T06:06:12.601Z,11.57
2016-02-02T06:07:12.590Z,11.66
2016-02-02T06:08:12.576Z,11.54
2016-02-02T06:09:12.548Z,11.59
2016-02-02T06:10:12.519Z,11.57
2016-02-02T06:11:12.507Z,11.6
2016-02-02T06:12:12.479Z,11.57
2016-02-02T06:13:12.449Z,11.6
2016-02-02T06:14:12.421Z,11.62
2016-02-02T06:15:12.411Z,11.59
2016-02-02T06:16:12.382Z,11.51
2016-02-02T06:17:12.354Z,11.51
2016-02-02T06:18:12.357Z,11.6
2016-02-02T06:19:12.330Z,11.52
2016-02-02T06:20:12.302Z,11.48
2016-02-02T06:21:12.273Z,11.51
2016-02-02T06:22:12.260Z,11.51
2016-02-02T06:23:12.232Z,11.48
2016-02-02T06:24:12.204Z,11.51
2016-02-02T06:25:12.176Z,11.59
2016-02-02T06:26:12.166Z,11.59
2016-02-02T06:27:12.153Z,11.59
2016-02-02T06:28:12.109Z,11.57
2016-02-02T06:29:12.096Z,11.47
2016-02-02T06:30:12.083Z,11.51
2016-02-02T06:31:12.048Z,11.45
2016-02-02T06:32:12.036Z,11.48
2016-02-02T06:33:12.007Z,11.45
2016-02-02T06:34:11.979Z,11.47
2016-02-02T06:35:11.965Z,11.52
2016-02-02T06:36:11.938Z,11.48
2016-02-02T06:37:11.925Z,11.4
2016-02-02T06:38:11.882Z,11.5
2016-02-02T06:39:11.868Z,11.48
2016-02-02T06:40:11.855Z,11.41
2016-02-02T06:41:11.827Z,11.35
2016-02-02T06:42:11.798Z,11.45
2016-02-02T06:43:11.785Z,11.44
2016-02-02T06:44:11.773Z,11.43
2016-02-02T06:45:11.729Z,11.43
2016-02-02T06:46:11.715Z,11.4
2016-02-02T06:47:11.687Z,11.3
2016-02-02T06:48:11.658Z,11.4
2016-02-02T06:49:11.646Z,11.33
2016-02-02T06:50:11.648Z,11.35
2016-02-02T06:51:11.603Z,11.43
2016-02-02T06:52:11.576Z,11.37
2016-02-02T06:53:11.564Z,11.44
2016-02-02T06:54:11.550Z,11.43
2016-02-02T06:55:11.506Z,11.37
2016-02-02T06:56:11.493Z,11.41
2016-02-02T06:57:11.481Z,11.45
2016-02-02T06:58:11.454Z,11.44
2016-02-02T06:59:11.425Z,11.35
2016-02-02T07:00:11.397Z,11.36
2016-02-02T07:01:11.387Z,11.41
2016-02-02T07:02:11.358Z,11.41
2016-02-02T07:03:11.345Z,11.41
2016-02-02T07:04:11.316Z,11.33
2016-02-02T07:05:11.319Z,11.35
2016-02-02T07:06:11.275Z,11.33
2016-02-02T07:07:11.247Z,11.33
2016-02-02T07:08:11.218Z,11.32
2016-02-02T07:09:11.207Z,11.37
2016-02-02T07:10:11.177Z,11.33
2016-02-02T07:11:11.149Z,11.27
2016-02-02T07:12:11.136Z,11.35
2016-02-02T07:13:11.112Z,11.35
2016-02-02T07:14:11.100Z,11.33
2016-02-02T07:15:11.070Z,11.36
2016-02-02T07:16:11.042Z,11.41
2016-02-02T07:17:11.028Z,11.36
2016-02-02T07:18:11.002Z,11.3
2016-02-02T07:19:10.989Z,11.33
2016-02-02T07:20:10.945Z,11.3
2016-02-02T07:21:10.920Z,11.32
2016-02-02T07:22:10.924Z,11.32
2016-02-02T07:23:10.895Z,11.4
2016-02-02T07:24:10.867Z,11.33
2016-02-02T07:25:10.838Z,11.27
2016-02-02T07:26:10.808Z,11.3
2016-02-02T07:27:10.793Z,11.33
2016-02-02T07:28:10.780Z,11.25
2016-02-02T07:29:10.769Z,11.32
2016-02-02T07:30:10.724Z,11.26
2016-02-02T07:31:10.718Z,11.36
2016-02-02T07:32:10.750Z,11.32
2016-02-02T07:33:13.214Z,11.23
2016-02-02T07:34:20.327Z,11.15
2016-02-02T07:35:11.259Z,11.27
2016-02-02T07:36:10.590Z,11.18
2016-02-02T07:37:10.623Z,11.12
2016-02-02T07:38:10.533Z,11.15
2016-02-02T07:39:10.520Z,11.12
2016-02-02T07:40:10.498Z,11.22
2016-02-02T07:41:10.485Z,11.23
2016-02-02T07:42:10.457Z,11.17
2016-02-02T07:43:10.429Z,11.12
2016-02-02T07:44:10.416Z,11.14
2016-02-02T07:45:10.387Z,11.14
2016-02-02T07:46:10.890Z,11.15
2016-02-02T07:47:10.345Z,11.18
2016-02-02T07:48:10.319Z,11.11
2016-02-02T07:49:10.290Z,11.15
2016-02-02T07:50:10.277Z,11.17
2016-02-02T07:51:10.268Z,11.17
2016-02-02T07:52:10.067Z,11.14
2016-02-02T07:53:10.210Z,11.17
2016-02-02T07:54:10.197Z,11.14
2016-02-02T07:55:10.158Z,11.14
2016-02-02T07:56:10.269Z,11.15
2016-02-02T07:57:10.116Z,11.11
2016-02-02T07:58:10.103Z,11.07
2016-02-02T07:59:10.107Z,11.08
2016-02-02T08:00:10.048Z,11.1
2016-02-02T08:01:10.020Z,11.02
2016-02-02T08:02:10.023Z,11.07
2016-02-02T08:03:09.979Z,11.05
2016-02-02T08:04:09.965Z,11.05
2016-02-02T08:05:09.935Z,11.11
2016-02-02T08:06:09.921Z,11.14
2016-02-02T08:07:09.896Z,11.02
2016-02-02T08:08:09.867Z,11.08
2016-02-02T08:09:09.853Z,11.05
2016-02-02T08:10:09.840Z,11.07
2016-02-02T08:11:09.794Z,10.93
2016-02-02T08:12:09.781Z,10.97
2016-02-02T08:13:09.753Z,10.99
2016-02-02T08:14:09.731Z,10.99
2016-02-02T08:15:09.707Z,10.96
2016-02-02T08:16:09.681Z,11.02
2016-02-02T08:17:09.667Z,11
2016-02-02T08:18:09.639Z,10.97
2016-02-02T08:19:09.626Z,11
2016-02-02T08:20:09.597Z,10.94
2016-02-02T08:21:09.587Z,10.9
2016-02-02T08:22:09.715Z,10.92
2016-02-02T08:23:09.546Z,10.86
2016-02-02T08:24:09.501Z,10.78
2016-02-02T08:25:09.489Z,10.87
2016-02-02T08:26:09.477Z,10.72
2016-02-02T08:27:09.448Z,10.75
2016-02-02T08:28:09.422Z,10.79
2016-02-02T08:29:09.393Z,10.72
2016-02-02T08:30:09.384Z,10.87
2016-02-02T08:31:09.355Z,10.82
2016-02-02T08:32:09.327Z,10.72
2016-02-02T08:33:09.298Z,10.72
2016-02-02T08:34:09.285Z,10.75
2016-02-02T08:35:09.257Z,10.74
2016-02-02T08:36:09.244Z,10.69
2016-02-02T08:37:09.215Z,10.69
2016-02-02T08:38:09.187Z,10.61
2016-02-02T08:39:09.174Z,10.67
2016-02-02T08:40:09.146Z,10.57
2016-02-02T08:41:09.148Z,10.54
2016-02-02T08:42:09.105Z,10.57
2016-02-02T08:43:09.077Z,10.46
2016-02-02T08:44:09.048Z,10.49
2016-02-02T08:45:09.035Z,10.4
2016-02-02T08:46:09.007Z,10.4
2016-02-02T08:47:08.996Z,10.41
2016-02-02T08:48:08.968Z,10.35
2016-02-02T08:49:08.940Z,10.4
2016-02-02T08:50:08.910Z,10.35
2016-02-02T08:51:08.913Z,10.33
2016-02-02T08:52:08.871Z,10.35
2016-02-02T08:53:08.859Z,10.37
2016-02-02T08:54:08.673Z,10.34
2016-02-02T08:55:08.800Z,10.38
2016-02-02T08:56:08.777Z,10.34
2016-02-02T08:57:08.763Z,10.3
2016-02-02T08:58:08.726Z,10.3
2016-02-02T08:59:08.713Z,10.28
2016-02-02T09:00:08.700Z,10.33
2016-02-02T09:01:08.672Z,10.33
2016-02-02T09:02:08.659Z,10.31
2016-02-02T09:03:08.615Z,10.34
2016-02-02T09:04:08.587Z,10.31
2016-02-02T09:05:08.573Z,10.34
2016-02-02T09:06:08.577Z,10.31
2016-02-02T09:07:08.532Z,10.28
2016-02-02T09:08:08.508Z,10.28
2016-02-02T09:09:08.479Z,10.28
2016-02-02T09:10:08.466Z,10.34
2016-02-02T09:11:08.438Z,10.35
2016-02-02T09:12:08.425Z,10.34
2016-02-02T09:13:08.382Z,10.3
2016-02-02T09:14:08.371Z,10.31
2016-02-02T09:15:08.374Z,10.3
2016-02-02T09:16:08.329Z,10.33
2016-02-02T09:17:08.317Z,10.31
2016-02-02T09:18:08.273Z,10.31
2016-02-02T09:19:08.260Z,10.34
2016-02-02T09:20:08.237Z,10.28
2016-02-02T09:21:08.225Z,10.3
2016-02-02T09:22:08.195Z,10.3
2016-02-02T09:23:08.167Z,10.33
2016-02-02T09:24:08.138Z,10.34
2016-02-02T09:25:08.126Z,10.33
2016-02-02T09:26:08.097Z,10.25
2016-02-02T09:27:07.916Z,10.34
2016-02-02T09:28:08.059Z,10.34
2016-02-02T09:29:08.030Z,10.33
2016-02-02T09:30:08.017Z,10.38
2016-02-02T09:31:07.973Z,10.28
2016-02-02T09:32:07.960Z,10.34
2016-02-02T09:33:07.932Z,10.28
2016-02-02T09:34:07.903Z,10.31
2016-02-02T09:35:07.891Z,10.35
2016-02-02T09:36:07.878Z,10.28
2016-02-02T09:37:07.834Z,10.38
2016-02-02T09:38:07.838Z,10.28
2016-02-02T09:39:07.793Z,10.26
2016-02-02T09:40:07.765Z,10.28
2016-02-02T09:41:07.751Z,10.3
2016-02-02T09:42:07.723Z,10.3
2016-02-02T09:43:07.710Z,10.28
2016-02-02T09:44:07.682Z,10.19
2016-02-02T09:45:07.653Z,10.16
2016-02-02T09:46:07.640Z,10.17
2016-02-02T09:47:07.612Z,10.17
2016-02-02T09:48:07.583Z,10.2
2016-02-02T09:49:07.570Z,10.19
2016-02-02T09:50:07.559Z,10.2
2016-02-02T09:51:07.531Z,10.16
2016-02-02T09:52:07.518Z,10.19
2016-02-02T09:53:07.474Z,10.22
2016-02-02T09:54:07.445Z,10.25
2016-02-02T09:55:07.432Z,10.17
2016-02-02T09:56:07.409Z,10.2
2016-02-02T09:57:07.380Z,10.15
2016-02-02T09:58:07.539Z,10.05
2016-02-02T09:59:07.681Z,10.07
2016-02-02T10:00:07.529Z,10.22
2016-02-02T10:01:07.594Z,10.13
2016-02-02T10:02:07.491Z,10.22
2016-02-02T10:03:07.431Z,10.2
2016-02-02T10:04:07.248Z,10.15
2016-02-02T10:05:07.187Z,10.19
2016-02-02T10:06:07.237Z,10.26
2016-02-02T10:07:07.161Z,10.17
2016-02-02T10:08:07.133Z,10.26
2016-02-02T10:09:07.340Z,10.33
2016-02-02T10:10:07.406Z,10.33
2016-02-02T10:11:07.486Z,10.3
2016-02-02T10:12:07.082Z,10.33
2016-02-02T10:13:07.006Z,10.28
2016-02-02T10:14:06.995Z,10.17
2016-02-02T10:15:06.965Z,10.26
2016-02-02T10:16:06.952Z,10.31
2016-02-02T10:17:06.924Z,10.31
2016-02-02T10:18:06.911Z,10.3
2016-02-02T10:19:06.914Z,10.19
2016-02-02T10:20:06.853Z,10.37
2016-02-02T10:21:06.841Z,10.34
2016-02-02T10:22:06.812Z,10.31
2016-02-02T10:23:06.799Z,10.3
2016-02-02T10:24:06.755Z,10.33
2016-02-02T10:25:06.742Z,10.34
2016-02-02T10:26:06.713Z,10.34
2016-02-02T10:27:06.689Z,10.34
2016-02-02T10:28:06.676Z,10.35
2016-02-02T10:29:06.664Z,10.34
2016-02-02T10:30:06.619Z,10.33
2016-02-02T10:31:06.622Z,10.26
2016-02-02T10:32:06.578Z,10.35
2016-02-02T10:33:06.568Z,10.34
2016-02-02T10:34:06.555Z,10.31
2016-02-02T10:35:06.506Z,10.34
2016-02-02T10:36:06.493Z,10.33
2016-02-02T10:37:06.465Z,10.31
2016-02-02T10:38:06.452Z,10.34
2016-02-02T10:39:06.439Z,10.28
2016-02-02T10:40:06.397Z,10.37
2016-02-02T10:41:06.399Z,10.38
2016-02-02T10:42:06.355Z,10.37
2016-02-02T10:43:06.357Z,10.33
2016-02-02T10:44:06.313Z,10.33
2016-02-02T10:45:06.285Z,10.26
2016-02-02T10:46:06.288Z,10.33
2016-02-02T10:47:06.244Z,10.33
2016-02-02T10:48:06.230Z,10.3
2016-02-02T10:49:06.202Z,10.3
2016-02-02T10:50:06.175Z,10.33
2016-02-02T10:51:06.161Z,10.26
2016-02-02T10:52:06.132Z,10.33
2016-02-02T10:53:06.104Z,10.31
2016-02-02T10:54:06.075Z,10.28
2016-02-02T10:55:06.063Z,10.3
2016-02-02T10:56:06.033Z,10.17
2016-02-02T10:57:06.025Z,10.25
2016-02-02T10:58:05.998Z,10.3
2016-02-02T10:59:05.986Z,10.26
2016-02-02T11:00:05.957Z,10.26
2016-02-02T11:01:05.913Z,10.22
2016-02-02T11:02:05.900Z,10.28
2016-02-02T11:03:05.918Z,10.3
2016-02-02T11:04:05.843Z,10.28
2016-02-02T11:05:05.830Z,10.3
2016-02-02T11:06:05.801Z,10.34
2016-02-02T11:07:05.788Z,10.26
2016-02-02T11:08:05.759Z,10.3
2016-02-02T11:09:05.747Z,10.3
2016-02-02T11:10:05.707Z,10.19
2016-02-02T11:11:05.757Z,10.3
2016-02-02T11:12:05.665Z,10.23
2016-02-02T11:13:05.653Z,10.35
2016-02-02T11:14:05.624Z,10.34
2016-02-02T11:15:05.597Z,10.34
2016-02-02T11:16:05.584Z,10.3
2016-02-02T11:17:05.555Z,10.35
2016-02-02T11:18:05.544Z,10.22
2016-02-02T11:19:05.514Z,10.26
2016-02-02T11:20:05.486Z,10.3
2016-02-02T11:21:05.457Z,10.34
2016-02-02T11:22:05.447Z,10.28
2016-02-02T11:23:05.419Z,10.34
2016-02-02T11:24:05.406Z,10.38
2016-02-02T11:25:05.377Z,10.33
2016-02-02T11:26:05.349Z,10.38
2016-02-02T11:27:05.337Z,10.28
2016-02-02T11:28:05.300Z,10.35
2016-02-02T11:29:05.318Z,10.33
2016-02-02T11:30:05.257Z,10.34
2016-02-02T11:31:05.246Z,10.37
2016-02-02T11:32:05.216Z,10.4
2016-02-02T11:33:05.188Z,10.35
2016-02-02T11:34:05.176Z,10.42
2016-02-02T11:35:05.148Z,10.35
2016-02-02T11:36:05.136Z,10.4
2016-02-02T11:37:05.107Z,10.42
2016-02-02T11:38:05.156Z,10.35
2016-02-02T11:39:05.064Z,10.37
2016-02-02T11:40:05.036Z,10.41
2016-02-02T11:41:05.010Z,10.37
2016-02-02T11:42:04.982Z,10.46
2016-02-02T11:43:04.969Z,10.37
2016-02-02T11:44:04.940Z,10.38
2016-02-02T11:45:04.931Z,10.4
2016-02-02T11:46:04.903Z,10.4
2016-02-02T11:47:04.874Z,10.33
2016-02-02T11:48:04.878Z,10.38
2016-02-02T11:49:04.834Z,10.4
2016-02-02T11:50:04.821Z,10.44
2016-02-02T11:51:04.792Z,10.33
2016-02-02T11:52:04.764Z,10.31
2016-02-02T11:53:04.750Z,10.33
2016-02-02T11:54:04.723Z,10.26
2016-02-02T11:55:04.693Z,10.33
2016-02-02T11:56:04.680Z,10.25
2016-02-02T11:57:04.652Z,10.19
2016-02-02T11:58:04.641Z,10.28
2016-02-02T11:59:04.613Z,10.3
2016-02-02T12:00:04.585Z,10.28
2016-02-02T12:01:04.556Z,10.25
2016-02-02T12:02:04.528Z,10.19
2016-02-02T12:03:04.514Z,10.23
2016-02-02T12:04:04.490Z,10.17
2016-02-02T12:05:04.477Z,10.25
2016-02-02T12:06:04.448Z,10.19
2016-02-02T12:07:04.421Z,10.19
2016-02-02T12:08:04.408Z,10.22
2016-02-02T12:09:04.380Z,10.16
2016-02-02T12:10:04.351Z,9.98
2016-02-02T12:11:04.323Z,10.02
2016-02-02T12:12:04.311Z,9.98
2016-02-02T12:13:04.281Z,10.02
2016-02-02T12:14:04.269Z,10.02
2016-02-02T12:15:04.271Z,10.07
2016-02-02T12:16:04.211Z,10.04
2016-02-02T12:17:04.200Z,10.04
2016-02-02T12:18:04.170Z,10.02
2016-02-02T12:19:04.142Z,10.02
2016-02-02T12:20:04.129Z,9.98
2016-02-02T12:21:04.099Z,9.99
2016-02-02T12:22:04.072Z,10.1
2016-02-02T12:23:04.059Z,10.07
2016-02-02T12:24:04.031Z,10.02
2016-02-02T12:25:04.002Z,10.09
2016-02-02T12:26:03.989Z,9.98
2016-02-02T12:27:03.961Z,10.01
2016-02-02T12:28:03.933Z,10.04
2016-02-02T12:29:03.930Z,9.89
2016-02-02T12:30:03.903Z,9.94
2016-02-02T12:31:03.873Z,9.97
2016-02-02T12:32:03.845Z,9.97
2016-02-02T12:33:03.832Z,10.02
2016-02-02T12:34:03.787Z,9.99
2016-02-02T12:35:03.775Z,9.99
2016-02-02T12:36:03.762Z,10.05
2016-02-02T12:37:03.749Z,9.98
2016-02-02T12:38:03.704Z,9.99
2016-02-02T12:39:03.691Z,10.02
2016-02-02T12:40:03.663Z,9.91
2016-02-02T12:41:03.635Z,9.94
2016-02-02T12:42:03.624Z,9.97
2016-02-02T12:43:03.595Z,9.97
2016-02-02T12:44:03.581Z,9.92
2016-02-02T12:45:03.538Z,9.94
2016-02-02T12:46:03.509Z,9.89
2016-02-02T12:47:03.497Z,10.01
2016-02-02T12:48:03.483Z,9.84
2016-02-02T12:49:03.470Z,9.86
2016-02-02T12:50:03.419Z,9.83
2016-02-02T12:51:03.379Z,9.87
2016-02-02T12:52:03.357Z,9.89
2016-02-02T12:53:03.349Z,9.82
2016-02-02T12:54:03.279Z,9.79
2016-02-02T12:55:03.260Z,9.73
2016-02-02T12:56:03.227Z,9.8
2016-02-02T12:57:03.211Z,9.65